Time;durP1;ratioP1;P1;durP2;ratioP2;P2;SDS_P1;SDS_P2;PMS_P1;PMS_P2;Temp;Humidity;BMP_temperature;BMP_pressure;BME280_temperature;BME280_humidity;BME280_pressure;Samples;Min_cycle;Max_cycle;Signal;HPM_P1;HPM_P2
2023/06/17 03:02:37;;;;;;;22.57;21.03;;;12.60;99.90;;;;;;4835391;29;20273;-80
2023/06/17 03:05:06;;;;;;;31.37;29.53;;;12.50;99.90;;;;;;4840695;29;20608;-80
2023/06/17 03:07:35;;;;;;;40.30;37.90;;;12.30;99.90;;;;;;4841360;29;20190;-80
2023/06/17 03:10:04;;;;;;;32.73;30.80;;;12.30;99.90;;;;;;4841554;29;20230;-80
2023/06/17 03:12:30;;;;;;;28.63;26.43;;;12.20;99.90;;;;;;4841381;29;20361;-80
2023/06/17 03:14:57;;;;;;;53.17;50.23;;;12.10;99.90;;;;;;4845869;24;20352;-78
2023/06/17 03:17:24;;;;;;;36.17;34.03;;;12.00;99.90;;;;;;4840813;29;20730;-78
2023/06/17 03:19:50;;;;;;;29.87;28.17;;;11.90;99.90;;;;;;4826800;29;20202;-79
2023/06/17 03:22:16;;;;;;;36.37;33.73;;;11.80;99.90;;;;;;4832359;29;20185;-78
2023/06/17 03:24:42;;;;;;;46.67;43.97;;;11.80;99.90;;;;;;4845787;29;20627;-78
2023/06/17 03:27:08;;;;;;;25.63;24.00;;;12.00;99.90;;;;;;4843894;29;20281;-78
2023/06/17 03:29:37;;;;;;;24.53;22.90;;;12.10;99.90;;;;;;4845632;29;20210;-79
2023/06/17 03:32:03;;;;;;;54.43;51.33;;;12.20;99.90;;;;;;4848375;29;20200;-79
2023/06/17 03:34:29;;;;;;;35.33;33.30;;;12.30;99.90;;;;;;4831178;29;20232;-79
2023/06/17 03:36:56;;;;;;;21.60;20.27;;;12.40;99.90;;;;;;4847525;29;20261;-79
2023/06/17 03:39:22;;;;;;;15.13;14.13;;;12.60;99.90;;;;;;4830780;29;20208;-79
2023/06/17 03:41:48;;;;;;;36.37;34.23;;;12.70;99.90;;;;;;4841641;29;20194;-78
2023/06/17 03:44:14;;;;;;;46.93;44.40;;;12.70;99.90;;;;;;4831461;29;20257;-78
2023/06/17 03:46:40;;;;;;;52.20;49.33;;;12.80;99.90;;;;;;4830257;29;20229;-78
2023/06/17 03:49:06;;;;;;;155.23;147.07;;;12.90;99.90;;;;;;4829846;29;20213;-78
2023/06/17 03:51:32;;;;;;;114.77;108.80;;;12.90;99.90;;;;;;4840190;29;20197;-78
2023/06/17 03:53:58;;;;;;;108.80;102.97;;;12.90;99.90;;;;;;4838594;29;20244;-78
2023/06/17 03:56:23;;;;;;;125.80;118.93;;;12.80;99.90;;;;;;4845884;29;20185;-79
2023/06/17 03:58:50;;;;;;;93.33;88.23;;;12.80;99.90;;;;;;4845731;29;20229;-78
2023/06/17 04:01:15;;;;;;;55.40;52.43;;;12.80;99.90;;;;;;4846893;29;20313;-78
2023/06/17 04:03:41;;;;;;;49.70;46.53;;;12.90;99.90;;;;;;4846048;29;20256;-78
2023/06/17 04:06:08;;;;;;;153.40;145.30;;;13.10;99.90;;;;;;4838914;29;20204;-78
2023/06/17 04:08:35;;;;;;;26.97;24.97;;;13.20;99.90;;;;;;4844673;29;20248;-79
2023/06/17 04:11:02;;;;;;;41.63;39.27;;;13.30;99.90;;;;;;4846026;29;20194;-78
2023/06/17 04:13:28;;;;;;;19.50;18.30;;;13.50;99.90;;;;;;4828756;29;20359;-78
2023/06/17 04:15:54;;;;;;;11.53;10.33;;;13.60;99.90;;;;;;4828855;29;20211;-78
2023/06/17 04:18:20;;;;;;;28.10;20.03;;;13.70;99.90;;;;;;4850222;29;20262;-77
2023/06/17 04:20:45;;;;;;;104.73;99.20;;;13.80;99.90;;;;;;4844965;29;20250;-77
2023/06/17 04:23:11;;;;;;;268.07;253.30;;;14.00;99.90;;;;;;4834223;29;20226;-78
2023/06/17 04:25:37;;;;;;;274.03;259.50;;;14.00;99.90;;;;;;4855243;29;20288;-79
2023/06/17 04:28:07;;;;;;;135.67;128.60;;;14.00;99.90;;;;;;4835371;29;20217;-77
2023/06/17 04:30:33;;;;;;;32.13;30.20;;;14.10;99.90;;;;;;4846645;29;20197;-78
2023/06/17 04:33:00;;;;;;;22.03;20.63;;;14.20;99.90;;;;;;4846074;29;20224;-78
2023/06/17 04:35:29;;;;;;;59.87;56.50;;;14.30;99.90;;;;;;4845906;29;20304;-78
2023/06/17 04:37:56;;;;;;;80.07;75.73;;;14.40;99.90;;;;;;4842708;29;20247;-78
2023/06/17 04:40:25;;;;;;;37.10;34.30;;;14.40;99.90;;;;;;4849244;29;20204;-77
2023/06/17 04:42:52;;;;;;;26.17;24.67;;;14.40;99.90;;;;;;4860112;29;20205;-77
2023/06/17 04:45:18;;;;;;;19.23;17.97;;;14.50;99.90;;;;;;4849386;29;20217;-78
2023/06/17 04:47:44;;;;;;;17.80;16.70;;;14.50;99.90;;;;;;4853068;29;20222;-78
2023/06/17 04:50:12;;;;;;;20.53;19.33;;;14.60;99.90;;;;;;4834222;29;20205;-78
2023/06/17 04:52:42;;;;;;;34.60;32.57;;;14.80;99.90;;;;;;4846333;29;20229;-78
2023/06/17 04:55:11;;;;;;;54.23;51.13;;;14.90;99.90;;;;;;4830181;29;20225;-78
2023/06/17 04:57:37;;;;;;;31.30;29.47;;;15.10;99.90;;;;;;4846219;29;20198;-78
2023/06/17 05:00:05;;;;;;;16.23;15.23;;;15.30;99.90;;;;;;4839809;29;20280;-78
2023/06/17 05:02:31;;;;;;;12.00;11.02;;;15.60;99.90;;;;;;4834089;29;20229;-78
2023/06/17 05:04:56;;;;;;;9.83;9.07;;;15.90;99.90;;;;;;4834754;29;20214;-77
2023/06/17 05:07:22;;;;;;;10.52;9.73;;;16.30;99.90;;;;;;4852219;29;20214;-77
2023/06/17 05:09:48;;;;;;;8.85;8.25;;;16.80;99.90;;;;;;4847324;29;20194;-78
2023/06/17 05:12:14;;;;;;;11.27;10.35;;;17.30;99.90;;;;;;4845363;29;20202;-77
2023/06/17 05:14:39;;;;;;;12.05;11.02;;;17.90;99.90;;;;;;4845442;29;20225;-78
2023/06/17 05:17:06;;;;;;;22.58;21.20;;;18.50;99.90;;;;;;4831921;29;20186;-79
2023/06/17 05:19:31;;;;;;;14.10;12.95;;;18.90;99.90;;;;;;4832987;29;20194;-79
2023/06/17 05:21:57;;;;;;;13.07;11.95;;;19.20;99.90;;;;;;4830511;29;20712;-78
2023/06/17 05:24:23;;;;;;;11.40;10.48;;;19.20;99.90;;;;;;4846154;29;20229;-79
2023/06/17 05:26:48;;;;;;;17.05;15.65;;;19.40;99.90;;;;;;4845928;29;20250;-78
2023/06/17 05:29:14;;;;;;;34.72;32.85;;;19.80;99.90;;;;;;4846152;29;20208;-78
2023/06/17 05:31:40;;;;;;;25.38;23.67;;;20.10;99.90;;;;;;4847793;29;20660;-78
2023/06/17 05:34:06;;;;;;;13.32;12.32;;;20.40;99.90;;;;;;4845577;29;20766;-78
2023/06/17 05:36:31;;;;;;;28.27;26.05;;;20.70;99.90;;;;;;4845269;29;20571;-79
2023/06/17 05:38:57;;;;;;;23.50;21.77;;;21.10;99.90;;;;;;4828649;29;20200;-79
2023/06/17 05:41:23;;;;;;;10.10;9.35;;;21.50;99.90;;;;;;4846714;29;20194;-78
2023/06/17 05:43:49;;;;;;;8.55;7.78;;;21.70;99.90;;;;;;4846224;29;20221;-78
2023/06/17 05:46:15;;;;;;;8.82;8.23;;;21.60;99.90;;;;;;4843955;29;20204;-77
2023/06/17 05:48:40;;;;;;;9.52;8.02;;;21.50;99.90;;;;;;4833516;29;20446;-78
2023/06/17 05:51:06;;;;;;;8.80;8.00;;;21.90;99.90;;;;;;4849027;29;20197;-78
2023/06/17 05:53:32;;;;;;;9.15;8.13;;;22.00;99.90;;;;;;4832626;29;20233;-78
2023/06/17 05:55:57;;;;;;;9.18;8.43;;;21.80;99.90;;;;;;4845949;29;20228;-78
2023/06/17 05:58:23;;;;;;;12.82;11.90;;;21.80;99.90;;;;;;4844845;29;20204;-80
2023/06/17 06:00:49;;;;;;;18.08;16.77;;;22.20;99.90;;;;;;4844804;29;20190;-80
2023/06/17 06:03:15;;;;;;;20.08;18.83;;;22.50;99.90;;;;;;4840150;29;20214;-79
2023/06/17 06:05:41;;;;;;;13.75;12.43;;;22.70;99.40;;;;;;4848052;29;20206;-77
2023/06/17 06:08:06;;;;;;;8.32;7.57;;;23.10;98.90;;;;;;4847669;29;20225;-78
2023/06/17 06:10:32;;;;;;;8.32;6.82;;;23.60;97.60;;;;;;4844325;29;20232;-79
2023/06/17 06:12:59;;;;;;;8.23;7.63;;;24.10;96.50;;;;;;4845481;29;20332;-78
2023/06/17 06:15:25;;;;;;;7.95;7.30;;;24.20;95.30;;;;;;4845562;29;20229;-79
2023/06/17 06:17:51;;;;;;;8.02;7.40;;;24.30;93.80;;;;;;4828820;29;20194;-79
2023/06/17 06:20:17;;;;;;;8.07;7.38;;;24.60;93.10;;;;;;4845161;29;20243;-79
2023/06/17 06:22:43;;;;;;;12.35;11.55;;;24.90;92.80;;;;;;4844657;29;20289;-79
2023/06/17 06:25:10;;;;;;;14.25;13.10;;;25.00;91.50;;;;;;4828820;29;20252;-79
2023/06/17 06:27:35;;;;;;;22.67;21.42;;;25.20;91.80;;;;;;4844328;29;20304;-79
2023/06/17 06:30:01;;;;;;;29.83;28.02;;;25.40;90.50;;;;;;4817694;29;20236;-79
2023/06/17 06:32:27;;;;;;;22.77;21.40;;;25.70;90.30;;;;;;4809821;29;20202;-79
2023/06/17 06:34:53;;;;;;;19.50;18.17;;;25.90;88.30;;;;;;4835705;29;20210;-79
2023/06/17 06:37:19;;;;;;;15.52;14.57;;;26.20;87.70;;;;;;4827943;29;20571;-79
2023/06/17 06:39:44;;;;;;;10.05;9.45;;;26.40;85.30;;;;;;4844340;29;20246;-79
2023/06/17 06:42:13;;;;;;;9.45;8.75;;;26.40;83.20;;;;;;4827837;29;20345;-79
2023/06/17 06:44:39;;;;;;;11.40;10.55;;;26.60;82.50;;;;;;4845965;29;20214;-78
2023/06/17 06:47:05;;;;;;;11.85;8.07;;;26.40;83.00;;;;;;4852627;29;20239;-78
2023/06/17 06:49:30;;;;;;;8.35;7.55;;;26.80;80.70;;;;;;4835666;29;20201;-78
2023/06/17 06:51:56;;;;;;;8.77;7.93;;;26.80;78.80;;;;;;4832439;29;20263;-79
2023/06/17 06:54:22;;;;;;;8.65;7.97;;;26.90;78.50;;;;;;4815861;29;20240;-78
2023/06/17 06:56:48;;;;;;;11.45;10.55;;;26.80;78.20;;;;;;4843714;29;20670;-80
2023/06/17 06:59:14;;;;;;;12.48;11.48;;;26.90;76.80;;;;;;4845770;29;20193;-78
2023/06/17 07:01:40;;;;;;;13.45;12.35;;;27.10;76.00;;;;;;4837968;29;20197;-79
2023/06/17 07:04:06;;;;;;;13.13;12.27;;;27.00;75.80;;;;;;4845040;29;20214;-79
2023/06/17 07:06:32;;;;;;;13.45;12.65;;;27.00;75.70;;;;;;4845180;29;20198;-80
2023/06/17 07:08:58;;;;;;;15.52;14.40;;;27.40;74.90;;;;;;4845584;29;20204;-78
2023/06/17 07:11:24;;;;;;;25.88;24.02;;;27.80;74.30;;;;;;4844932;29;20197;-78
2023/06/17 07:13:50;;;;;;;23.88;22.27;;;28.10;72.30;;;;;;4813968;29;20694;-78
2023/06/17 07:16:15;;;;;;;32.22;30.38;;;28.10;71.60;;;;;;4845222;29;20197;-79
2023/06/17 07:18:41;;;;;;;34.72;32.60;;;28.10;71.30;;;;;;4828544;29;20193;-79
2023/06/17 07:21:07;;;;;;;22.75;21.20;;;28.30;71.30;;;;;;4844545;29;20205;-78
2023/06/17 07:23:33;;;;;;;21.85;20.55;;;28.50;69.60;;;;;;4844310;29;20210;-78
2023/06/17 07:25:58;;;;;;;21.02;19.50;;;28.30;70.80;;;;;;4848378;29;20236;-78
2023/06/17 07:28:24;;;;;;;10.75;10.05;;;28.50;69.50;;;;;;4832921;29;20201;-79
2023/06/17 07:30:50;;;;;;;10.38;9.77;;;28.50;66.40;;;;;;4846761;29;20198;-79
2023/06/17 07:33:16;;;;;;;11.27;10.43;;;28.30;68.60;;;;;;4830464;29;20216;-79
2023/06/17 07:35:42;;;;;;;14.20;12.93;;;28.10;67.50;;;;;;4846402;29;20257;-78
2023/06/17 07:38:08;;;;;;;9.73;8.82;;;28.20;68.50;;;;;;4845974;29;20225;-79
2023/06/17 07:40:36;;;;;;;9.68;7.95;;;28.70;67.30;;;;;;4846851;29;20197;-79
2023/06/17 07:43:01;;;;;;;9.10;8.30;;;28.40;65.90;;;;;;4853319;29;20189;-79
2023/06/17 07:45:27;;;;;;;9.77;7.45;;;28.20;66.40;;;;;;4834838;29;20212;-79
2023/06/17 07:47:53;;;;;;;7.72;7.07;;;28.40;65.30;;;;;;4833532;29;20198;-81
2023/06/17 07:50:19;;;;;;;7.93;7.43;;;28.60;64.70;;;;;;4844833;29;20258;-79
2023/06/17 07:52:44;;;;;;;11.57;9.48;;;28.50;66.00;;;;;;4829074;29;20252;-79
2023/06/17 07:55:10;;;;;;;8.63;7.97;;;28.80;64.80;;;;;;4845537;29;20218;-79
2023/06/17 07:57:36;;;;;;;8.70;7.60;;;29.20;64.10;;;;;;4844814;29;20194;-79
2023/06/17 08:00:09;;;;;;;11.18;10.15;;;29.30;62.50;;;;;;4844383;29;20705;-79
2023/06/17 08:02:34;;;;;;;9.32;7.72;;;29.20;63.00;;;;;;4827951;29;20198;-79
2023/06/17 08:05:00;;;;;;;8.68;7.88;;;29.10;62.90;;;;;;4835886;29;20221;-79
2023/06/17 08:07:26;;;;;;;11.80;7.68;;;29.30;63.20;;;;;;4827877;29;20198;-79
2023/06/17 08:09:52;;;;;;;7.32;6.72;;;29.10;61.90;;;;;;4843961;29;20200;-79
2023/06/17 08:12:18;;;;;;;7.80;7.20;;;29.30;62.60;;;;;;4844520;29;20197;-79
2023/06/17 08:14:44;;;;;;;8.60;6.95;;;29.50;61.70;;;;;;4849818;29;20245;-79
2023/06/17 08:17:10;;;;;;;7.55;6.70;;;29.80;62.50;;;;;;4835954;29;20690;-79
2023/06/17 08:19:35;;;;;;;7.63;7.05;;;30.10;60.30;;;;;;4848838;29;20189;-78
2023/06/17 08:22:01;;;;;;;7.50;6.85;;;29.80;60.60;;;;;;4832230;29;20201;-79
2023/06/17 08:24:27;;;;;;;8.77;7.97;;;29.80;60.30;;;;;;4831755;29;20213;-79
2023/06/17 08:26:53;;;;;;;8.82;8.05;;;29.80;59.70;;;;;;4851758;29;20202;-78
2023/06/17 08:29:20;;;;;;;11.27;7.82;;;30.00;60.30;;;;;;4827982;29;20194;-78
2023/06/17 08:31:48;;;;;;;8.43;7.50;;;30.30;59.70;;;;;;4852703;29;20273;-80
2023/06/17 08:34:15;;;;;;;10.35;9.35;;;30.50;60.40;;;;;;4837121;29;20236;-80
2023/06/17 08:36:46;;;;;;;11.23;10.43;;;30.50;58.80;;;;;;4851800;29;20202;-80
2023/06/17 08:39:12;;;;;;;22.67;21.13;;;30.70;58.50;;;;;;4835115;29;20204;-80
2023/06/17 08:41:40;;;;;;;39.30;37.25;;;31.10;57.10;;;;;;4851878;29;20189;-80
2023/06/17 08:44:08;;;;;;;38.33;36.13;;;31.20;56.10;;;;;;4851646;29;20301;-79
2023/06/17 08:46:34;;;;;;;36.75;34.80;;;31.40;56.50;;;;;;4851233;29;20201;-80
2023/06/17 08:49:02;;;;;;;41.75;39.42;;;32.00;55.30;;;;;;4848637;29;20284;-80
2023/06/17 08:51:28;;;;;;;41.88;39.50;;;31.70;55.10;;;;;;4846033;29;20190;-80
2023/06/17 08:53:55;;;;;;;41.33;39.13;;;31.10;54.90;;;;;;4846591;29;20229;-80
2023/06/17 08:56:21;;;;;;;39.78;37.53;;;30.50;55.70;;;;;;4849437;29;20214;-80
2023/06/17 08:58:49;;;;;;;44.80;42.17;;;30.70;55.20;;;;;;4849084;29;20193;-80
2023/06/17 09:01:16;;;;;;;47.30;44.70;;;30.90;54.00;;;;;;4849757;29;20288;-80
2023/06/17 09:03:42;;;;;;;42.85;40.63;;;31.30;51.70;;;;;;4849722;29;20270;-80
2023/06/17 09:06:26;;;;;;;39.42;37.15;;;31.60;51.50;;;;;;4849823;29;20670;-80
2023/06/17 09:08:53;;;;;;;38.85;36.58;;;32.10;52.70;;;;;;4854576;29;20217;-79
2023/06/17 09:11:25;;;;;;;23.88;22.45;;;31.60;54.20;;;;;;4861106;29;20213;-80
2023/06/17 09:14:03;;;;;;;27.98;26.13;;;31.90;51.70;;;;;;4838227;29;20232;-80
2023/06/17 09:16:31;;;;;;;33.95;31.90;;;31.90;52.80;;;;;;4859402;29;20194;-79
2023/06/17 09:18:59;;;;;;;19.92;18.45;;;32.00;51.90;;;;;;4844687;29;20201;-80
2023/06/17 09:21:26;;;;;;;10.77;9.75;;;32.10;51.30;;;;;;4861406;29;20278;-79
2023/06/17 09:23:54;;;;;;;10.73;9.93;;;31.90;50.80;;;;;;4854985;29;20316;-79
2023/06/17 09:26:27;;;;;;;36.30;34.00;;;31.20;51.20;;;;;;4854335;29;20197;-80
2023/06/17 09:28:53;;;;;;;36.70;34.60;;;30.60;53.00;;;;;;4851762;29;20269;-80
2023/06/17 09:31:19;;;;;;;27.80;25.88;;;30.90;52.70;;;;;;4834821;29;20675;-80
2023/06/17 09:33:45;;;;;;;42.28;40.05;;;30.70;51.30;;;;;;4833719;29;20517;-80
2023/06/17 09:36:11;;;;;;;38.28;36.08;;;30.80;52.20;;;;;;4850534;29;20576;-80
2023/06/17 09:38:38;;;;;;;29.70;28.00;;;30.10;52.10;;;;;;4833207;29;20204;-80
2023/06/17 09:41:04;;;;;;;28.27;26.67;;;30.50;53.20;;;;;;4849927;29;20235;-81
2023/06/17 09:43:31;;;;;;;14.88;9.35;;;31.20;49.60;;;;;;4850186;29;20225;-82
2023/06/17 09:46:02;;;;;;;16.33;15.32;;;31.10;47.30;;;;;;4849326;29;20204;-79
2023/06/17 09:48:38;;;;;;;15.73;14.75;;;30.00;48.50;;;;;;4854555;29;20201;-80
2023/06/17 09:51:09;;;;;;;17.52;16.50;;;30.20;48.60;;;;;;4830374;29;20208;-79
2023/06/17 09:53:36;;;;;;;14.85;13.90;;;29.80;48.80;;;;;;4858527;29;20741;-80
2023/06/17 09:56:02;;;;;;;29.00;27.25;;;29.20;48.80;;;;;;4851181;29;20651;-81
2023/06/17 09:58:30;;;;;;;23.70;22.15;;;28.70;49.50;;;;;;4854087;29;20198;-80
2023/06/17 10:01:04;;;;;;;9.27;8.57;;;28.20;51.00;;;;;;4842892;29;20194;-79
2023/06/17 10:03:33;;;;;;;20.05;18.63;;;29.00;51.80;;;;;;4838234;29;20229;-80
2023/06/17 10:06:08;;;;;;;31.00;29.30;;;30.20;49.30;;;;;;4838816;29;20205;-80
2023/06/17 10:08:36;;;;;;;11.88;10.88;;;30.90;48.40;;;;;;4854834;29;20201;-80
2023/06/17 10:11:02;;;;;;;8.52;8.00;;;31.60;47.30;;;;;;4817835;29;20225;-81
2023/06/17 10:13:39;;;;;;;8.85;7.88;;;31.20;45.70;;;;;;4846823;29;20225;-81
2023/06/17 10:16:09;;;;;;;6.72;6.22;;;31.20;46.10;;;;;;4833934;29;20205;-80
2023/06/17 10:18:37;;;;;;;7.75;7.25;;;32.00;44.50;;;;;;4849636;29;20190;-80
2023/06/17 10:21:05;;;;;;;9.13;8.38;;;32.30;44.80;;;;;;4833836;29;20205;-80
2023/06/17 10:23:32;;;;;;;18.65;17.45;;;33.10;45.00;;;;;;4850978;29;20590;-80
2023/06/17 10:25:58;;;;;;;24.23;22.77;;;32.90;44.50;;;;;;4849880;29;20205;-81
2023/06/17 10:28:24;;;;;;;18.08;16.95;;;32.30;45.40;;;;;;4849648;29;20655;-81
2023/06/17 10:30:51;;;;;;;15.43;14.52;;;32.30;45.40;;;;;;4849633;29;20198;-81
2023/06/17 10:33:27;;;;;;;26.35;24.95;;;32.50;45.60;;;;;;4848709;29;20227;-81
2023/06/17 10:36:10;;;;;;;31.02;29.23;;;33.40;43.70;;;;;;4833942;29;20189;-82
2023/06/17 10:38:38;;;;;;;28.38;26.83;;;32.80;42.90;;;;;;4847728;29;20681;-80
2023/06/17 10:41:03;;;;;;;32.90;31.10;;;33.00;42.80;;;;;;4847337;29;20250;-80
2023/06/17 10:43:38;;;;;;;38.03;36.03;;;33.30;43.30;;;;;;4848380;29;20799;-80
2023/06/17 10:46:04;;;;;;;33.65;31.55;;;33.90;42.20;;;;;;4832148;29;20197;-80
2023/06/17 10:48:32;;;;;;;37.33;35.35;;;34.40;41.80;;;;;;4848431;29;20227;-80
2023/06/17 10:51:02;;;;;;;25.67;24.23;;;33.80;42.20;;;;;;4831399;29;20552;-80
2023/06/17 10:53:35;;;;;;;37.78;35.53;;;34.00;41.40;;;;;;4855162;29;20225;-79
2023/06/17 10:56:06;;;;;;;35.50;33.58;;;33.80;42.00;;;;;;4836273;29;20197;-81
2023/06/17 10:58:35;;;;;;;22.65;21.20;;;33.40;42.10;;;;;;4850164;29;20269;-78
2023/06/17 11:01:02;;;;;;;21.98;20.83;;;34.00;40.70;;;;;;4853037;29;20217;-80
2023/06/17 11:03:28;;;;;;;37.03;34.70;;;33.90;41.20;;;;;;4854307;29;20293;-80
2023/06/17 11:06:04;;;;;;;42.33;39.92;;;33.10;42.50;;;;;;4842202;29;20221;-80
2023/06/17 11:08:31;;;;;;;39.75;37.60;;;33.30;42.40;;;;;;4850595;29;20250;-81
2023/06/17 11:11:10;;;;;;;24.25;22.85;;;33.30;41.10;;;;;;4842404;29;20189;-81
2023/06/17 11:13:40;;;;;;;19.85;18.77;;;33.30;40.20;;;;;;4849333;29;20285;-81
2023/06/17 11:16:07;;;;;;;12.90;11.90;;;33.50;40.50;;;;;;4836341;29;20205;-82
2023/06/17 11:18:40;;;;;;;7.93;7.45;;;34.00;39.80;;;;;;4849179;29;20194;-80
2023/06/17 11:21:08;;;;;;;8.95;8.05;;;34.50;39.60;;;;;;4850135;29;20199;-80
2023/06/17 11:23:36;;;;;;;8.90;8.27;;;33.90;39.30;;;;;;4822021;29;20228;-80
2023/06/17 11:26:02;;;;;;;10.90;10.10;;;33.70;40.00;;;;;;4851379;29;20197;-80
2023/06/17 11:28:31;;;;;;;23.55;22.00;;;33.50;40.20;;;;;;4850778;29;20194;-80
2023/06/17 11:30:57;;;;;;;38.20;36.17;;;32.60;40.70;;;;;;4856730;29;20186;-80
2023/06/17 11:33:23;;;;;;;39.30;37.17;;;32.80;41.50;;;;;;4861625;29;20241;-81
2023/06/17 11:35:53;;;;;;;22.05;20.63;;;33.20;41.20;;;;;;4856439;29;20212;-80
2023/06/17 11:38:21;;;;;;;11.15;10.35;;;34.00;40.30;;;;;;4846830;29;20265;-81
2023/06/17 11:40:46;;;;;;;14.35;13.35;;;33.70;39.70;;;;;;4840558;29;20182;-80
2023/06/17 11:43:12;;;;;;;42.58;40.35;;;33.10;40.10;;;;;;4861780;29;20205;-80
2023/06/17 11:45:38;;;;;;;44.15;41.78;;;33.20;41.00;;;;;;4853633;29;20651;-80
2023/06/17 11:48:06;;;;;;;8.80;8.18;;;34.10;41.30;;;;;;4849999;29;20208;-80
2023/06/17 11:50:32;;;;;;;6.28;5.75;;;34.90;39.30;;;;;;4844208;29;20235;-80
2023/06/17 11:53:00;;;;;;;5.80;5.05;;;35.70;38.40;;;;;;4854581;29;20596;-80
2023/06/17 11:55:31;;;;;;;5.97;5.28;;;35.20;38.30;;;;;;4854159;29;20296;-82
2023/06/17 11:57:58;;;;;;;7.78;7.15;;;33.70;39.60;;;;;;4855001;29;20223;-82
2023/06/17 12:00:24;;;;;;;6.57;5.90;;;33.40;41.20;;;;;;4853692;29;20213;-81
2023/06/17 12:02:49;;;;;;;5.72;5.32;;;34.40;39.60;;;;;;4836480;29;20204;-81
2023/06/17 12:05:15;;;;;;;5.72;5.32;;;34.30;38.60;;;;;;4852408;29;20281;-81
2023/06/17 12:07:42;;;;;;;8.25;5.57;;;34.00;38.40;;;;;;4852628;29;20288;-81
2023/06/17 12:10:11;;;;;;;5.88;5.43;;;34.10;39.30;;;;;;4853711;29;20194;-81
2023/06/17 12:12:37;;;;;;;6.10;5.70;;;34.00;39.50;;;;;;4853516;29;20205;-82
2023/06/17 12:15:06;;;;;;;5.60;5.20;;;34.60;39.20;;;;;;4841881;29;20229;-81
2023/06/17 12:17:46;;;;;;;8.30;7.72;;;35.40;38.10;;;;;;4848330;29;20590;-81
2023/06/17 12:20:16;;;;;;;8.90;8.18;;;35.30;38.00;;;;;;4845249;29;20682;-81
2023/06/17 12:22:43;;;;;;;6.20;5.72;;;34.40;37.50;;;;;;4846882;29;20197;-81
2023/06/17 12:25:11;;;;;;;9.15;8.35;;;33.50;39.70;;;;;;4832284;29;20262;-82
2023/06/17 12:27:37;;;;;;;9.45;8.75;;;33.40;40.60;;;;;;4840303;29;20254;-82
2023/06/17 12:30:05;;;;;;;6.60;5.90;;;34.00;39.70;;;;;;4836116;29;20190;-83
2023/06/17 12:32:31;;;;;;;6.22;5.72;;;34.40;38.30;;;;;;4850294;29;20276;-82
2023/06/17 12:34:58;;;;;;;7.43;6.97;;;34.70;38.40;;;;;;4861781;29;20230;-82
2023/06/17 12:37:29;;;;;;;9.93;9.13;;;35.70;36.60;;;;;;4861335;29;20206;-81
2023/06/17 12:40:06;;;;;;;12.07;11.35;;;36.50;37.90;;;;;;4839185;29;20202;-80
2023/06/17 12:42:32;;;;;;;13.32;12.52;;;36.30;37.40;;;;;;4852856;29;20418;-81
2023/06/17 12:44:58;;;;;;;7.78;7.18;;;35.20;38.20;;;;;;4853966;29;20238;-81
2023/06/17 12:47:25;;;;;;;6.63;6.15;;;34.90;40.00;;;;;;4836693;29;20193;-80
2023/06/17 12:49:51;;;;;;;12.93;12.05;;;35.50;39.90;;;;;;4843135;29;20179;-80
2023/06/17 12:52:17;;;;;;;14.70;13.60;;;35.30;38.10;;;;;;4817557;29;20556;-82
2023/06/17 12:54:43;;;;;;;15.13;14.00;;;35.70;38.40;;;;;;4820637;29;20359;-82
2023/06/17 12:57:10;;;;;;;16.23;15.13;;;35.70;36.40;;;;;;4854533;29;20265;-82
2023/06/17 12:59:36;;;;;;;16.88;15.77;;;34.80;36.30;;;;;;4845041;29;20189;-80
2023/06/17 13:02:02;;;;;;;13.10;12.30;;;34.30;37.90;;;;;;4845299;29;20205;-82
2023/06/17 13:04:28;;;;;;;10.95;10.13;;;34.80;37.40;;;;;;4852772;29;20213;-82
2023/06/17 13:06:55;;;;;;;17.40;15.98;;;35.10;37.60;;;;;;4834366;29;20246;-82
2023/06/17 13:09:22;;;;;;;16.63;15.55;;;35.70;36.60;;;;;;4830731;29;20198;-81
2023/06/17 13:11:48;;;;;;;18.67;17.30;;;36.30;36.10;;;;;;4852175;29;20591;-79
2023/06/17 13:14:14;;;;;;;19.23;18.13;;;35.70;35.80;;;;;;4855840;29;20230;-83
2023/06/17 13:16:40;;;;;;;11.27;10.43;;;34.60;37.50;;;;;;4837501;29;20679;-81
2023/06/17 13:19:07;;;;;;;16.45;15.52;;;35.00;38.60;;;;;;4852631;29;20200;-81
2023/06/17 13:21:34;;;;;;;19.23;17.92;;;35.40;36.20;;;;;;4849296;29;20186;-80
2023/06/17 13:24:00;;;;;;;15.40;14.35;;;35.40;35.90;;;;;;4851345;29;20220;-82
2023/06/17 13:26:29;;;;;;;15.45;14.25;;;36.10;35.20;;;;;;4851045;29;20582;-82
2023/06/17 13:29:00;;;;;;;19.17;17.67;;;37.10;34.40;;;;;;4846062;29;20193;-80
2023/06/17 13:31:26;;;;;;;15.52;14.30;;;37.50;33.30;;;;;;4814367;29;20210;-81
2023/06/17 13:33:52;;;;;;;15.73;14.57;;;37.20;33.40;;;;;;4847008;29;20790;-82
2023/06/17 13:36:17;;;;;;;17.85;16.85;;;36.00;34.30;;;;;;4823991;29;20217;-81
2023/06/17 13:38:43;;;;;;;17.33;16.02;;;35.10;36.70;;;;;;4840628;29;20258;-80
2023/06/17 13:41:09;;;;;;;16.60;15.45;;;35.20;35.40;;;;;;4843943;29;20232;-82
2023/06/17 13:43:35;;;;;;;15.70;14.77;;;35.10;35.60;;;;;;4822700;29;20203;-83
2023/06/17 13:46:01;;;;;;;15.65;14.65;;;35.30;34.70;;;;;;4842310;29;20184;-80
2023/06/17 13:48:30;;;;;;;16.02;15.15;;;35.60;34.00;;;;;;4859708;29;20210;-80
2023/06/17 13:50:56;;;;;;;19.30;18.10;;;36.50;33.90;;;;;;4865002;29;20190;-78
2023/06/17 13:53:21;;;;;;;17.75;16.65;;;36.60;32.30;;;;;;4836940;29;20229;-80
2023/06/17 13:55:48;;;;;;;17.10;15.98;;;36.60;32.90;;;;;;4843523;29;20221;-80
2023/06/17 13:58:14;;;;;;;16.17;15.15;;;36.60;33.20;;;;;;4843269;29;20729;-79
2023/06/17 14:00:40;;;;;;;12.88;12.07;;;36.90;33.40;;;;;;4860090;29;20189;-81
2023/06/17 14:03:06;;;;;;;10.95;10.07;;;37.50;32.50;;;;;;4858374;29;20226;-81
2023/06/17 14:05:32;;;;;;;13.15;12.25;;;37.30;32.20;;;;;;4857114;29;20206;-79
2023/06/17 14:07:58;;;;;;;13.27;12.20;;;37.30;32.50;;;;;;4861833;29;20205;-80
2023/06/17 14:10:24;;;;;;;13.45;12.55;;;37.10;32.10;;;;;;4859273;29;20200;-79
2023/06/17 14:12:54;;;;;;;12.32;11.35;;;36.80;31.90;;;;;;4836238;29;20576;-80
2023/06/17 14:15:20;;;;;;;18.33;17.33;;;36.90;32.30;;;;;;4837809;29;20233;-82
2023/06/17 14:17:45;;;;;;;20.58;19.27;;;38.00;31.70;;;;;;4853185;29;20227;-81
2023/06/17 14:20:12;;;;;;;26.95;25.45;;;38.90;31.10;;;;;;4838648;29;20257;-81
2023/06/17 14:22:37;;;;;;;34.03;31.85;;;38.80;30.90;;;;;;4836883;29;20194;-82
2023/06/17 14:25:04;;;;;;;18.10;17.08;;;38.00;30.70;;;;;;4853233;29;20263;-82
2023/06/17 14:27:40;;;;;;;22.17;20.63;;;37.20;31.40;;;;;;4831833;29;20266;-81
2023/06/17 14:30:15;;;;;;;23.52;22.25;;;37.10;31.40;;;;;;4854225;29;20227;-82
2023/06/17 14:32:43;;;;;;;26.60;25.25;;;37.30;31.70;;;;;;4852908;29;20201;-81
2023/06/17 14:35:10;;;;;;;25.63;24.05;;;37.70;30.10;;;;;;4853148;29;20264;-81
2023/06/17 14:37:38;;;;;;;27.25;25.58;;;37.90;30.80;;;;;;4835146;29;20280;-82
2023/06/17 14:40:05;;;;;;;26.30;24.67;;;37.30;30.80;;;;;;4833464;29;20193;-82
2023/06/17 14:42:31;;;;;;;16.63;15.48;;;36.30;30.80;;;;;;4846759;29;20249;-81
2023/06/17 14:44:56;;;;;;;17.88;16.70;;;36.50;32.00;;;;;;4853289;29;20565;-80
2023/06/17 14:47:23;;;;;;;15.93;14.85;;;36.40;30.80;;;;;;4834873;29;20197;-82
2023/06/17 14:49:49;;;;;;;19.77;18.67;;;36.00;30.80;;;;;;4848742;29;20223;-80
2023/06/17 14:52:15;;;;;;;26.38;24.70;;;35.70;31.90;;;;;;4850618;29;20194;-82
2023/06/17 14:54:41;;;;;;;29.80;28.27;;;35.80;32.60;;;;;;4852363;29;20240;-82
2023/06/17 14:57:07;;;;;;;27.05;25.65;;;36.20;32.10;;;;;;4837917;29;20657;-82
2023/06/17 14:59:32;;;;;;;30.45;28.42;;;36.00;31.80;;;;;;4835719;29;20186;-81
2023/06/17 15:01:58;;;;;;;31.42;29.45;;;36.30;31.80;;;;;;4844149;29;20269;-82
2023/06/17 15:04:24;;;;;;;26.40;24.88;;;35.70;32.00;;;;;;4855938;29;20216;-82
2023/06/17 15:06:50;;;;;;;33.08;31.25;;;35.60;32.20;;;;;;4858594;29;20218;-80
2023/06/17 15:09:32;;;;;;;31.60;29.70;;;34.90;33.10;;;;;;4851595;29;20193;-81
2023/06/17 15:12:00;;;;;;;24.20;22.88;;;34.80;33.40;;;;;;4844911;29;20216;-82
2023/06/17 15:14:28;;;;;;;33.05;31.13;;;35.20;33.20;;;;;;4836970;29;20225;-82
2023/06/17 15:16:54;;;;;;;35.00;32.95;;;35.40;32.20;;;;;;4845012;29;20197;-82
2023/06/17 15:19:20;;;;;;;29.63;27.90;;;36.00;32.50;;;;;;4851965;29;20221;-82
2023/06/17 15:21:46;;;;;;;24.83;23.38;;;36.70;31.10;;;;;;4851018;29;20195;-82
2023/06/17 15:24:13;;;;;;;23.42;21.98;;;37.20;31.20;;;;;;4834562;29;20221;-82
2023/06/17 15:26:40;;;;;;;20.98;19.73;;;37.20;31.80;;;;;;4853917;29;20209;-82
2023/06/17 15:29:06;;;;;;;21.33;19.80;;;37.00;31.60;;;;;;4837596;29;20197;-82
2023/06/17 15:31:33;;;;;;;19.13;17.92;;;37.20;31.30;;;;;;4854024;29;20200;-82